Time;durP1;ratioP1;P1;durP2;ratioP2;P2;SDS_P1;SDS_P2;PMS_P1;PMS_P2;Temp;Humidity;BMP_temperature;BMP_pressure;BME280_temperature;BME280_humidity;BME280_pressure;Samples;Min_cycle;Max_cycle;Signal;HPM_P1;HPM_P2
2023/07/13 00:01:46;;;;;;;1.70;0.93;;;16.90;1.00;;;;;;5015149;28;20647;-90
2023/07/13 00:04:13;;;;;;;4.87;1.37;;;16.70;1.00;;;;;;5014023;28;20181;-90
2023/07/13 00:06:39;;;;;;;2.87;1.50;;;16.70;1.00;;;;;;5014070;28;20242;-90
2023/07/13 00:09:04;;;;;;;8.77;1.50;;;16.60;1.00;;;;;;5013799;28;20196;-90
2023/07/13 00:11:30;;;;;;;5.00;1.20;;;16.90;1.00;;;;;;5013771;28;20235;-90
2023/07/13 00:13:55;;;;;;;3.63;1.50;;;17.60;1.00;;;;;;5018025;28;20192;-90
2023/07/13 00:16:21;;;;;;;6.83;1.37;;;16.40;1.00;;;;;;5025876;28;20193;-90
2023/07/13 00:18:47;;;;;;;4.77;1.40;;;16.40;1.00;;;;;;5015778;28;20200;-91
2023/07/13 00:21:13;;;;;;;6.07;1.50;;;16.40;1.00;;;;;;5013548;28;20197;-90
2023/07/13 00:23:41;;;;;;;3.83;1.30;;;16.30;1.00;;;;;;5013872;28;20638;-90
2023/07/13 00:26:09;;;;;;;4.87;1.30;;;16.30;1.00;;;;;;5017360;28;20231;-90
2023/07/13 00:28:35;;;;;;;5.47;1.50;;;16.30;1.00;;;;;;5020919;28;20208;-90
2023/07/13 00:31:01;;;;;;;5.57;1.23;;;16.20;1.00;;;;;;5019602;28;20197;-90
2023/07/13 00:33:29;;;;;;;3.53;1.20;;;16.20;1.00;;;;;;5020613;28;20189;-90
2023/07/13 00:35:55;;;;;;;4.17;1.27;;;16.20;1.00;;;;;;5020566;28;20609;-90
2023/07/13 00:38:22;;;;;;;3.30;1.43;;;16.10;1.00;;;;;;5015089;28;20188;-90
2023/07/13 00:40:48;;;;;;;6.43;1.40;;;16.60;1.00;;;;;;5014226;28;20297;-90
2023/07/13 00:43:20;;;;;;;8.70;1.10;;;16.00;1.00;;;;;;5014437;28;20219;-91
2023/07/13 00:45:46;;;;;;;6.90;1.50;;;16.40;1.00;;;;;;5014719;28;20165;-91
2023/07/13 00:48:16;;;;;;;5.03;1.40;;;16.60;1.00;;;;;;5014575;28;20211;-90
2023/07/13 00:50:43;;;;;;;6.73;1.40;;;14.90;1.00;;;;;;5014205;28;20785;-91
2023/07/13 00:53:08;;;;;;;6.40;1.47;;;15.80;1.00;;;;;;5013264;28;20199;-91
2023/07/13 00:55:35;;;;;;;1.93;1.20;;;15.70;1.00;;;;;;5013459;28;20639;-90
2023/07/13 00:58:02;;;;;;;6.27;1.30;;;15.60;1.00;;;;;;5013563;28;20340;-90
2023/07/13 01:00:29;;;;;;;8.63;1.27;;;15.60;1.00;;;;;;5012987;28;20295;-90
2023/07/13 01:02:56;;;;;;;8.10;1.53;;;15.70;1.00;;;;;;5015484;28;20165;-90
2023/07/13 01:05:22;;;;;;;4.07;1.03;;;15.60;1.00;;;;;;5033846;28;20233;-90
2023/07/13 01:07:51;;;;;;;2.97;1.30;;;15.50;1.00;;;;;;5036384;28;20176;-90
2023/07/13 01:10:17;;;;;;;6.60;1.50;;;15.70;1.00;;;;;;5019063;28;20197;-90
2023/07/13 01:12:43;;;;;;;10.23;1.70;;;16.10;1.00;;;;;;5015812;28;20173;-90
2023/07/13 01:15:35;;;;;;;4.27;1.37;;;15.20;1.00;;;;;;5014082;28;20211;-90
2023/07/13 01:18:01;;;;;;;4.10;1.37;;;15.30;1.00;;;;;;5013431;28;20542;-89
2023/07/13 01:20:27;;;;;;;4.67;1.20;;;15.30;1.00;;;;;;5013552;28;20196;-90
2023/07/13 01:22:53;;;;;;;4.57;1.37;;;15.20;1.00;;;;;;5012966;28;20714;-90
2023/07/13 01:25:20;;;;;;;4.00;1.30;;;15.20;1.00;;;;;;5013194;28;20173;-90
2023/07/13 01:27:45;;;;;;;6.83;1.50;;;15.10;1.00;;;;;;5013281;28;20231;-90
2023/07/13 01:30:11;;;;;;;3.80;1.30;;;15.40;1.00;;;;;;5013212;28;20201;-89
2023/07/13 01:32:37;;;;;;;3.27;1.33;;;15.10;1.00;;;;;;5014379;28;20176;-90
2023/07/13 01:35:03;;;;;;;3.73;1.30;;;15.00;1.00;;;;;;5012594;28;20203;-90
2023/07/13 01:37:33;;;;;;;3.07;1.13;;;15.00;1.00;;;;;;5013090;28;20175;-89
2023/07/13 01:39:59;;;;;;;2.73;1.20;;;15.00;1.00;;;;;;5012822;28;20192;-90
2023/07/13 01:42:24;;;;;;;5.50;1.37;;;15.10;1.00;;;;;;5014081;28;20188;-90
2023/07/13 01:44:50;;;;;;;5.30;1.33;;;15.30;1.00;;;;;;5016262;28;20173;-90
2023/07/13 01:47:15;;;;;;;6.40;1.43;;;15.00;1.00;;;;;;5016622;28;20172;-89
2023/07/13 01:49:41;;;;;;;3.33;1.10;;;14.80;1.00;;;;;;5016081;28;20205;-89
2023/07/13 01:52:07;;;;;;;3.43;1.57;;;14.90;1.00;;;;;;5016234;28;20550;-90
2023/07/13 01:54:33;;;;;;;4.00;1.27;;;14.80;1.00;;;;;;5016524;28;20264;-90
2023/07/13 01:56:59;;;;;;;7.73;1.40;;;15.00;1.00;;;;;;5016362;28;20265;-90
2023/07/13 01:59:25;;;;;;;3.37;1.70;;;15.20;1.00;;;;;;5016824;28;20216;-90
2023/07/13 02:01:51;;;;;;;3.27;1.43;;;14.80;1.00;;;;;;5016503;28;20192;-90
2023/07/13 02:04:16;;;;;;;5.53;1.00;;;14.80;1.00;;;;;;5016639;28;20502;-90
2023/07/13 02:06:42;;;;;;;4.80;1.50;;;15.10;1.00;;;;;;5016473;28;20279;-90
2023/07/13 02:09:07;;;;;;;2.77;1.27;;;14.70;1.00;;;;;;5016025;28;20200;-90
2023/07/13 02:11:33;;;;;;;4.33;1.10;;;14.70;1.00;;;;;;5016411;28;20177;-90
2023/07/13 02:14:01;;;;;;;5.17;1.47;;;14.70;1.00;;;;;;5017751;28;20176;-90
2023/07/13 02:16:27;;;;;;;4.13;1.20;;;14.60;1.00;;;;;;5016157;28;20181;-90
2023/07/13 02:18:52;;;;;;;4.77;1.57;;;14.60;1.00;;;;;;5015701;28;20192;-90
2023/07/13 02:21:18;;;;;;;4.03;1.20;;;14.60;1.00;;;;;;5016088;28;20666;-90
2023/07/13 02:23:44;;;;;;;3.20;1.33;;;14.60;1.00;;;;;;5017179;28;20177;-90
2023/07/13 02:26:10;;;;;;;4.57;1.60;;;14.70;1.00;;;;;;5015553;28;20192;-90
2023/07/13 02:28:35;;;;;;;3.90;1.23;;;15.20;1.00;;;;;;5015530;28;20251;-89
2023/07/13 02:31:06;;;;;;;4.07;1.30;;;15.60;1.00;;;;;;5016055;28;20586;-90
2023/07/13 02:33:32;;;;;;;6.27;1.80;;;14.40;1.00;;;;;;5016100;28;20181;-89
2023/07/13 02:35:57;;;;;;;4.33;1.53;;;14.50;1.00;;;;;;5015560;28;20230;-89
2023/07/13 02:38:23;;;;;;;8.03;1.70;;;14.40;1.00;;;;;;5015609;28;20184;-89
2023/07/13 02:40:49;;;;;;;4.17;1.70;;;14.40;1.00;;;;;;5015465;28;20200;-90
2023/07/13 02:43:14;;;;;;;7.03;1.43;;;14.40;1.00;;;;;;5015402;28;20196;-90
2023/07/13 02:45:44;;;;;;;6.00;1.50;;;14.40;1.00;;;;;;5015187;28;20184;-89
2023/07/13 02:48:09;;;;;;;5.53;1.43;;;14.40;1.00;;;;;;5015117;28;20201;-89
2023/07/13 02:50:35;;;;;;;4.73;1.20;;;14.60;2.70;;;;;;5014969;28;20193;-90
2023/07/13 02:53:01;;;;;;;4.57;1.40;;;14.30;10.10;;;;;;5015320;28;20181;-89
2023/07/13 02:55:26;;;;;;;3.77;1.37;;;14.30;6.40;;;;;;5014913;28;20625;-90
2023/07/13 02:57:52;;;;;;;6.20;1.30;;;14.30;6.90;;;;;;5014810;28;20189;-90
2023/07/13 03:00:17;;;;;;;4.50;1.50;;;14.30;18.70;;;;;;5014672;28;20215;-89
2023/07/13 03:02:43;;;;;;;5.03;1.40;;;14.30;35.40;;;;;;5015395;28;20181;-90
2023/07/13 03:05:12;;;;;;;9.23;1.70;;;14.30;31.30;;;;;;5015097;28;20173;-90
2023/07/13 03:07:39;;;;;;;4.20;1.20;;;14.20;38.30;;;;;;5014737;28;20271;-89
2023/07/13 03:10:06;;;;;;;3.93;1.40;;;14.20;46.20;;;;;;5014974;28;20209;-89
2023/07/13 03:12:32;;;;;;;7.83;1.30;;;14.20;55.70;;;;;;5016449;28;20173;-89
2023/07/13 03:14:58;;;;;;;6.97;1.10;;;14.20;55.70;;;;;;5015625;28;20173;-90
2023/07/13 03:17:24;;;;;;;4.50;1.30;;;14.20;55.40;;;;;;5014825;28;20176;-90
2023/07/13 03:19:50;;;;;;;7.30;1.40;;;14.20;49.50;;;;;;5018513;28;20189;-89
2023/07/13 03:22:19;;;;;;;4.17;1.50;;;14.20;51.30;;;;;;5021169;28;20173;-89
2023/07/13 03:24:45;;;;;;;6.50;1.30;;;14.10;59.20;;;;;;5017951;28;20177;-89
2023/07/13 03:27:11;;;;;;;4.07;1.20;;;14.10;64.90;;;;;;5016706;28;20181;-89
2023/07/13 03:29:37;;;;;;;3.87;1.73;;;14.10;82.50;;;;;;5015938;28;20300;-90
2023/07/13 03:32:04;;;;;;;5.77;1.43;;;14.10;99.20;;;;;;5014879;28;20540;-89
2023/07/13 03:34:30;;;;;;;4.10;1.40;;;14.00;99.90;;;;;;5016000;28;20647;-89
2023/07/13 03:36:55;;;;;;;9.30;1.53;;;14.00;99.90;;;;;;5014536;28;20219;-90
2023/07/13 03:39:21;;;;;;;4.20;1.30;;;14.00;99.90;;;;;;5014450;28;20254;-90
2023/07/13 03:41:47;;;;;;;3.60;1.30;;;14.00;99.90;;;;;;5014659;28;20666;-90
2023/07/13 03:44:12;;;;;;;5.07;1.67;;;14.10;99.90;;;;;;5014850;28;20188;-90
2023/07/13 03:46:38;;;;;;;4.23;1.83;;;14.00;99.90;;;;;;5014759;28;20528;-90
2023/07/13 03:49:05;;;;;;;1.80;1.10;;;14.30;99.90;;;;;;5014531;28;20232;-89
2023/07/13 03:51:30;;;;;;;2.63;1.37;;;13.90;99.90;;;;;;5014798;28;20231;-90
2023/07/13 03:53:56;;;;;;;5.63;1.30;;;13.90;99.90;;;;;;5014779;28;20177;-89
2023/07/13 03:56:22;;;;;;;7.43;1.40;;;14.00;99.90;;;;;;5015056;28;20181;-90
2023/07/13 03:58:49;;;;;;;3.07;1.43;;;14.00;99.90;;;;;;5015144;28;20216;-90
2023/07/13 04:01:17;;;;;;;2.43;1.50;;;13.90;99.90;;;;;;5014951;28;20351;-89
2023/07/13 04:03:44;;;;;;;4.33;1.57;;;13.90;99.90;;;;;;5015389;28;20181;-89
2023/07/13 04:06:26;;;;;;;2.90;1.30;;;13.90;99.90;;;;;;5013726;28;20203;-89
2023/07/13 04:08:56;;;;;;;3.40;1.10;;;13.90;99.90;;;;;;5014595;28;20200;-89
2023/07/13 04:11:26;;;;;;;4.90;1.60;;;13.90;99.90;;;;;;5015532;28;20188;-89
2023/07/13 04:13:52;;;;;;;3.70;1.30;;;13.90;99.90;;;;;;5015193;28;20181;-90
2023/07/13 04:16:18;;;;;;;2.90;1.53;;;13.90;99.90;;;;;;5014645;28;20630;-89
2023/07/13 04:18:45;;;;;;;6.67;1.40;;;13.90;99.90;;;;;;5014436;28;20663;-89
2023/07/13 04:21:11;;;;;;;5.77;1.50;;;13.90;99.90;;;;;;5014509;28;20232;-89
2023/07/13 04:23:37;;;;;;;6.03;1.57;;;13.90;99.90;;;;;;5014359;28;20181;-89
2023/07/13 04:26:03;;;;;;;6.47;1.50;;;14.00;99.90;;;;;;5014239;28;20275;-89
2023/07/13 04:28:30;;;;;;;5.40;1.40;;;14.00;99.90;;;;;;5014090;28;20283;-90
2023/07/13 04:30:55;;;;;;;5.20;1.50;;;14.00;99.90;;;;;;5014017;28;20568;-89
2023/07/13 04:33:22;;;;;;;6.20;1.40;;;14.10;99.90;;;;;;5014605;28;20185;-89
2023/07/13 04:35:49;;;;;;;4.80;1.30;;;14.10;99.90;;;;;;5014468;28;20611;-89
2023/07/13 04:38:15;;;;;;;2.43;1.10;;;14.20;99.90;;;;;;5013938;28;20177;-89
2023/07/13 04:40:44;;;;;;;3.30;1.40;;;14.20;99.90;;;;;;5014019;28;20196;-89
2023/07/13 04:43:10;;;;;;;5.57;1.50;;;14.20;99.90;;;;;;5015202;28;20292;-90
2023/07/13 04:45:36;;;;;;;7.17;1.80;;;14.30;99.90;;;;;;5014831;28;20657;-89
2023/07/13 04:48:01;;;;;;;4.40;1.53;;;14.30;99.90;;;;;;5013839;28;20181;-89
2023/07/13 04:50:27;;;;;;;5.80;1.40;;;14.50;99.90;;;;;;5013964;28;20192;-90
2023/07/13 04:52:53;;;;;;;5.80;1.80;;;14.50;99.90;;;;;;5013996;28;20208;-89
2023/07/13 04:55:19;;;;;;;6.47;1.70;;;14.50;99.90;;;;;;5013938;28;20169;-89
2023/07/13 04:57:46;;;;;;;4.33;1.67;;;14.50;99.90;;;;;;5013966;28;20267;-89
2023/07/13 05:00:12;;;;;;;7.53;2.00;;;14.60;99.90;;;;;;5013797;28;20216;-90
2023/07/13 05:02:39;;;;;;;7.67;1.53;;;14.60;99.90;;;;;;5013640;28;20187;-90
2023/07/13 05:05:06;;;;;;;5.40;1.67;;;14.70;99.90;;;;;;5013672;28;20173;-89
2023/07/13 05:07:32;;;;;;;8.27;1.80;;;14.70;99.90;;;;;;5014715;28;20177;-90
2023/07/13 05:09:59;;;;;;;6.67;1.93;;;15.40;99.90;;;;;;5013510;28;20690;-89
2023/07/13 05:12:25;;;;;;;4.87;1.60;;;16.00;99.90;;;;;;5013402;28;20519;-90
2023/07/13 05:14:50;;;;;;;7.00;2.23;;;14.90;99.90;;;;;;5013591;28;20408;-89
2023/07/13 05:17:16;;;;;;;8.50;2.00;;;15.10;99.90;;;;;;5014813;28;20180;-89
2023/07/13 05:19:42;;;;;;;8.00;2.37;;;15.00;99.90;;;;;;5017509;28;20578;-89
2023/07/13 05:22:07;;;;;;;5.13;1.70;;;15.10;99.90;;;;;;5017435;28;20188;-89
2023/07/13 05:24:33;;;;;;;5.47;1.67;;;15.00;99.90;;;;;;5017319;28;20616;-90
2023/07/13 05:26:59;;;;;;;9.07;1.70;;;15.20;89.00;;;;;;5017020;28;20260;-89
2023/07/13 05:29:24;;;;;;;5.20;1.83;;;15.30;69.70;;;;;;5016696;28;20243;-90
2023/07/13 05:31:50;;;;;;;7.30;1.90;;;14.70;66.30;;;;;;5016897;28;20227;-90
2023/07/13 05:34:16;;;;;;;9.83;2.13;;;15.30;44.70;;;;;;5017997;28;20286;-90
2023/07/13 05:36:41;;;;;;;5.13;1.80;;;15.50;44.90;;;;;;5025700;28;20594;-89
2023/07/13 05:39:07;;;;;;;8.60;2.17;;;15.70;34.40;;;;;;5032119;28;20172;-89
2023/07/13 05:41:33;;;;;;;8.47;1.60;;;16.60;24.20;;;;;;5033129;28;20195;-90
2023/07/13 05:43:58;;;;;;;7.27;2.27;;;15.60;14.40;;;;;;5025069;28;20189;-90
2023/07/13 05:46:24;;;;;;;7.73;2.23;;;15.80;13.90;;;;;;5020085;28;20220;-90
2023/07/13 05:48:50;;;;;;;7.47;2.07;;;15.90;7.70;;;;;;5019825;28;20608;-90
2023/07/13 05:51:16;;;;;;;4.70;1.70;;;15.70;1.20;;;;;;5017753;28;20180;-90
2023/07/13 05:53:41;;;;;;;8.47;2.20;;;16.40;1.00;;;;;;5016837;28;20272;-90
2023/07/13 05:56:07;;;;;;;7.33;2.03;;;15.90;1.00;;;;;;5017237;28;20177;-89
2023/07/13 05:58:32;;;;;;;8.27;2.53;;;15.90;1.00;;;;;;5016282;28;20185;-90
2023/07/13 06:01:10;;;;;;;11.07;2.37;;;15.80;1.00;;;;;;5017496;28;20219;-89
2023/07/13 06:03:37;;;;;;;11.30;2.57;;;16.00;1.00;;;;;;5016761;28;20516;-90
2023/07/13 06:06:04;;;;;;;6.60;2.00;;;16.00;1.00;;;;;;5016389;28;20185;-90
2023/07/13 06:08:30;;;;;;;7.90;2.10;;;16.10;1.00;;;;;;5017139;28;20207;-90
2023/07/13 06:11:03;;;;;;;9.43;2.60;;;16.20;1.00;;;;;;5017347;28;20267;-89
2023/07/13 06:13:28;;;;;;;10.80;2.73;;;16.20;1.00;;;;;;5016180;28;20184;-90
2023/07/13 06:15:54;;;;;;;9.50;2.53;;;16.30;1.00;;;;;;5016069;28;20180;-89
2023/07/13 06:18:19;;;;;;;8.83;2.27;;;16.30;1.00;;;;;;5016039;28;20231;-90
2023/07/13 06:20:45;;;;;;;10.73;2.50;;;16.20;1.00;;;;;;5016509;28;20201;-90
2023/07/13 06:23:10;;;;;;;9.10;2.50;;;16.40;1.00;;;;;;5017459;28;20180;-90
2023/07/13 06:25:36;;;;;;;6.33;2.40;;;16.50;1.00;;;;;;5021296;28;20187;-89
2023/07/13 06:28:02;;;;;;;12.77;3.17;;;16.70;1.00;;;;;;5020520;28;20623;-91
2023/07/13 06:30:27;;;;;;;10.40;3.27;;;16.60;1.00;;;;;;5016546;28;20243;-90
2023/07/13 06:32:53;;;;;;;8.67;2.80;;;16.60;1.00;;;;;;5016380;28;20267;-90
2023/07/13 06:35:19;;;;;;;8.60;2.87;;;16.60;1.00;;;;;;5016387;28;20211;-90
2023/07/13 06:37:44;;;;;;;14.03;3.40;;;16.80;1.00;;;;;;5015907;28;20177;-89
2023/07/13 06:40:10;;;;;;;9.43;2.87;;;16.70;1.00;;;;;;5016668;28;20331;-90
2023/07/13 06:42:36;;;;;;;8.27;2.80;;;16.70;1.00;;;;;;5017778;28;20587;-89
2023/07/13 06:45:02;;;;;;;8.17;3.10;;;16.80;1.00;;;;;;5015863;28;20216;-90
2023/07/13 06:47:27;;;;;;;8.37;3.10;;;17.00;1.00;;;;;;5016074;28;20280;-89
2023/07/13 06:49:53;;;;;;;13.97;3.20;;;17.00;1.00;;;;;;5015460;28;20279;-90
2023/07/13 06:52:18;;;;;;;9.33;2.90;;;17.10;1.00;;;;;;5015216;28;20184;-90
2023/07/13 06:54:44;;;;;;;9.13;2.93;;;17.30;1.00;;;;;;5015169;28;20177;-90
2023/07/13 06:57:10;;;;;;;9.70;3.03;;;17.20;1.00;;;;;;5014864;28;20586;-90
2023/07/13 06:59:35;;;;;;;13.27;3.20;;;17.20;1.00;;;;;;5015085;28;20223;-90
2023/07/13 07:02:01;;;;;;;9.77;2.90;;;17.30;1.00;;;;;;5016376;28;20185;-90
2023/07/13 07:04:26;;;;;;;14.00;3.17;;;17.20;1.00;;;;;;5014864;28;20177;-90
2023/07/13 07:06:52;;;;;;;9.10;2.80;;;17.30;1.00;;;;;;5015205;28;20177;-90
2023/07/13 07:09:18;;;;;;;6.53;2.50;;;17.40;1.00;;;;;;5014470;28;20204;-90
2023/07/13 07:11:43;;;;;;;8.93;3.10;;;17.30;1.00;;;;;;5016114;28;20176;-90
2023/07/13 07:14:09;;;;;;;9.90;3.00;;;17.50;1.00;;;;;;5014656;28;20173;-90
2023/07/13 07:16:34;;;;;;;11.37;3.10;;;17.40;1.00;;;;;;5014994;28;20169;-89
2023/07/13 07:19:00;;;;;;;7.37;3.07;;;18.00;1.00;;;;;;5016270;28;20177;-90
2023/07/13 07:21:27;;;;;;;9.23;2.70;;;17.90;1.00;;;;;;5016282;28;20173;-90
2023/07/13 07:23:52;;;;;;;7.47;3.23;;;18.70;1.00;;;;;;5015042;28;20240;-90
2023/07/13 07:26:18;;;;;;;12.10;3.53;;;17.50;1.00;;;;;;5014510;28;20211;-90
2023/07/13 07:28:44;;;;;;;10.50;3.20;;;17.50;1.00;;;;;;5014459;28;20244;-89
2023/07/13 07:31:09;;;;;;;6.17;2.90;;;17.40;1.00;;;;;;5014476;28;20196;-90
2023/07/13 07:33:35;;;;;;;11.73;3.30;;;17.40;1.00;;;;;;5014869;28;20223;-89
2023/07/13 07:36:01;;;;;;;13.07;3.40;;;17.50;1.00;;;;;;5014473;28;20232;-90
2023/07/13 07:38:27;;;;;;;14.10;2.87;;;17.40;1.00;;;;;;5014980;28;20173;-90
2023/07/13 07:40:53;;;;;;;9.37;2.67;;;17.50;1.00;;;;;;5014864;28;20201;-90
2023/07/13 07:43:18;;;;;;;8.07;2.90;;;17.50;1.00;;;;;;5014524;28;20543;-90
2023/07/13 07:45:45;;;;;;;12.13;3.13;;;17.60;1.00;;;;;;5014283;28;20315;-90
2023/07/13 07:48:11;;;;;;;7.07;2.97;;;17.50;1.00;;;;;;5026789;28;20157;-91
2023/07/13 07:50:38;;;;;;;10.17;2.80;;;17.70;1.00;;;;;;5038596;28;20185;-90
2023/07/13 07:53:06;;;;;;;8.37;2.63;;;17.80;1.00;;;;;;5027768;28;20184;-90
2023/07/13 07:55:33;;;;;;;10.30;2.57;;;17.80;1.00;;;;;;5017557;28;20516;-90
2023/07/13 07:57:59;;;;;;;6.50;2.63;;;17.90;1.00;;;;;;5016678;28;20173;-90
2023/07/13 08:00:24;;;;;;;7.03;2.63;;;17.90;1.00;;;;;;5014794;28;20297;-90
2023/07/13 08:02:50;;;;;;;8.63;2.70;;;18.10;1.00;;;;;;5014161;28;20211;-90
2023/07/13 08:05:16;;;;;;;8.77;2.50;;;18.10;1.00;;;;;;5014252;28;20235;-90
2023/07/13 08:07:41;;;;;;;6.03;2.33;;;18.10;1.00;;;;;;5014068;28;20208;-90
2023/07/13 08:10:08;;;;;;;8.07;2.77;;;18.30;1.00;;;;;;5015408;28;20216;-90
2023/07/13 08:12:36;;;;;;;9.63;3.60;;;18.10;1.00;;;;;;5014114;28;20651;-90
2023/07/13 08:15:02;;;;;;;6.77;2.70;;;18.20;1.00;;;;;;5015403;28;20184;-90
2023/07/13 08:17:27;;;;;;;9.57;2.63;;;18.80;1.00;;;;;;5014223;28;20188;-90
2023/07/13 08:19:53;;;;;;;10.33;3.10;;;18.30;1.00;;;;;;5013278;28;20223;-90
2023/07/13 08:22:18;;;;;;;11.97;3.13;;;18.40;1.00;;;;;;5015188;28;20268;-90
2023/07/13 08:24:44;;;;;;;10.10;3.10;;;18.60;1.00;;;;;;5014076;28;20181;-90
2023/07/13 08:27:13;;;;;;;10.77;3.00;;;18.50;1.00;;;;;;5018486;28;20193;-91
2023/07/13 08:29:39;;;;;;;9.70;2.63;;;18.80;1.00;;;;;;5015560;28;20220;-90
2023/07/13 08:32:06;;;;;;;9.10;2.67;;;19.20;1.00;;;;;;5015494;28;20219;-90
2023/07/13 08:34:31;;;;;;;5.73;2.50;;;18.80;1.00;;;;;;5014851;28;20192;-91
2023/07/13 08:36:57;;;;;;;7.73;2.50;;;18.80;1.00;;;;;;5013586;28;20177;-91
2023/07/13 08:39:22;;;;;;;8.03;2.80;;;19.10;1.00;;;;;;5014062;28;20204;-90
2023/07/13 08:41:55;;;;;;;8.37;3.03;;;19.70;1.00;;;;;;5013494;28;20208;-90
2023/07/13 08:44:34;;;;;;;9.83;2.50;;;19.00;1.00;;;;;;5013412;28;20189;-90
2023/07/13 08:47:00;;;;;;;9.23;2.93;;;19.10;1.00;;;;;;5015022;28;20208;-90
2023/07/13 08:49:26;;;;;;;8.40;2.77;;;19.00;1.00;;;;;;5013299;28;20247;-90
2023/07/13 08:52:00;;;;;;;8.57;2.40;;;19.20;1.00;;;;;;5012762;28;20177;-90
2023/07/13 08:54:40;;;;;;;9.07;2.60;;;19.20;1.00;;;;;;5013080;28;20179;-90
2023/07/13 08:57:15;;;;;;;9.23;2.80;;;19.10;1.00;;;;;;5014472;28;20211;-90
2023/07/13 08:59:41;;;;;;;8.83;2.37;;;19.10;1.00;;;;;;5012928;28;20216;-90
2023/07/13 09:02:27;;;;;;;8.87;2.20;;;19.50;1.00;;;;;;5013777;28;20181;-90
2023/07/13 09:04:59;;;;;;;7.93;2.50;;;19.20;1.00;;;;;;5015717;28;20164;-90
2023/07/13 09:07:40;;;;;;;11.03;3.13;;;19.30;1.00;;;;;;5014517;28;20169;-90
2023/07/13 09:10:21;;;;;;;9.30;2.67;;;19.30;99.90;;;;;;5014629;28;20583;-89
2023/07/13 09:12:53;;;;;;;10.07;3.07;;;19.50;1.00;;;;;;5013110;28;20172;-90
2023/07/13 09:15:34;;;;;;;8.93;2.60;;;19.50;99.90;;;;;;5013197;28;20696;-90
2023/07/13 09:18:10;;;;;;;7.83;2.03;;;19.60;1.00;;;;;;5013520;28;20184;-90
2023/07/13 09:20:48;;;;;;;9.33;2.47;;;19.90;1.00;;;;;;5013329;28;20247;-90
2023/07/13 09:23:18;;;;;;;9.87;2.70;;;19.60;99.90;;;;;;5013741;28;20188;-90
2023/07/13 09:25:56;;;;;;;7.60;2.23;;;19.60;99.90;;;;;;5014306;28;20235;-90
2023/07/13 09:28:33;;;;;;;7.37;2.83;;;19.60;99.90;;;;;;5014115;28;20200;-90
2023/07/13 09:31:25;;;;;;;8.47;2.50;;;19.70;99.90;;;;;;5013567;28;20196;-90
2023/07/13 09:33:51;;;;;;;9.93;2.93;;;19.80;1.00;;;;;;5010554;28;20181;-90
2023/07/13 09:36:22;;;;;;;8.90;2.50;;;20.00;99.90;;;;;;5012820;28;20185;-90
2023/07/13 09:38:56;;;;;;;10.73;2.57;;;19.90;99.90;;;;;;5013241;28;20177;-90
2023/07/13 09:41:31;;;;;;;8.00;2.83;;;20.00;99.90;;;;;;5013204;28;20805;-91
2023/07/13 09:44:11;;;;;;;9.37;3.07;;;20.00;99.90;;;;;;5014476;28;20219;-90
2023/07/13 09:46:38;;;;;;;8.47;2.60;;;19.90;99.90;;;;;;5012841;28;20180;-90
2023/07/13 09:49:04;;;;;;;7.37;2.43;;;20.00;99.90;;;;;;5012578;28;20197;-91
2023/07/13 09:51:30;;;;;;;9.57;3.20;;;19.90;99.90;;;;;;5013087;28;20670;-91
2023/07/13 09:53:56;;;;;;;11.57;2.63;;;19.90;99.90;;;;;;5013190;28;20612;-90
2023/07/13 09:56:26;;;;;;;7.10;2.83;;;20.10;99.90;;;;;;5013874;28;20252;-91
2023/07/13 09:58:52;;;;;;;6.17;2.10;;;20.10;99.90;;;;;;5013803;28;20647;-90
2023/07/13 10:01:32;;;;;;;5.97;2.20;;;20.20;99.90;;;;;;5017811;28;20181;-90
2023/07/13 10:03:58;;;;;;;9.07;2.00;;;20.30;99.90;;;;;;5027025;28;20180;-90
2023/07/13 10:06:23;;;;;;;10.83;2.63;;;20.30;99.90;;;;;;5025890;28;20193;-91
2023/07/13 10:08:53;;;;;;;12.60;2.97;;;20.30;99.90;;;;;;5017562;28;20205;-91
2023/07/13 10:11:22;;;;;;;8.40;2.23;;;20.20;99.90;;;;;;5017906;28;20177;-90
2023/07/13 10:13:59;;;;;;;9.97;2.40;;;20.40;99.90;;;;;;5019585;28;20200;-91
2023/07/13 10:16:32;;;;;;;7.17;2.57;;;20.60;99.90;;;;;;5016682;28;20179;-91
2023/07/13 10:19:05;;;;;;;8.67;2.13;;;20.70;99.90;;;;;;5018180;28;20674;-90
2023/07/13 10:21:48;;;;;;;10.33;2.67;;;20.70;99.90;;;;;;5019843;28;20494;-91
2023/07/13 10:24:29;;;;;;;6.57;2.30;;;21.30;99.90;;;;;;5017051;28;20264;-91
2023/07/13 10:26:58;;;;;;;7.33;2.23;;;21.80;99.90;;;;;;5015996;28;20219;-91
2023/07/13 10:29:27;;;;;;;10.03;2.40;;;20.90;99.90;;;;;;5015292;28;20212;-91
2023/07/13 10:31:53;;;;;;;8.30;2.43;;;21.90;99.90;;;;;;5015678;28;20238;-91
2023/07/13 10:34:19;;;;;;;7.33;2.07;;;21.40;99.90;;;;;;5017035;28;20202;-91
2023/07/13 10:36:47;;;;;;;6.00;1.80;;;21.70;99.90;;;;;;5015320;28;20290;-91
2023/07/13 10:39:31;;;;;;;5.60;2.20;;;21.10;99.90;;;;;;5016305;28;20335;-91
2023/07/13 10:42:06;;;;;;;8.67;2.20;;;21.00;99.90;;;;;;5015544;28;20279;-91
2023/07/13 10:44:33;;;;;;;8.23;2.57;;;20.80;99.90;;;;;;5016235;28;20280;-91
2023/07/13 10:47:07;;;;;;;6.00;2.00;;;20.80;99.90;;;;;;5016307;28;20260;-91
2023/07/13 10:49:36;;;;;;;7.83;2.20;;;20.90;99.90;;;;;;5015025;28;20220;-91
2023/07/13 10:52:02;;;;;;;6.47;2.17;;;21.10;99.90;;;;;;5015030;28;20192;-91
2023/07/13 10:54:34;;;;;;;5.90;1.90;;;21.30;99.90;;;;;;5015103;28;20262;-91
2023/07/13 10:57:18;;;;;;;7.87;2.07;;;21.70;99.90;;;;;;5015295;28;20177;-91
2023/07/13 10:59:47;;;;;;;6.57;2.03;;;21.80;99.90;;;;;;5015186;28;20235;-92
2023/07/13 11:02:22;;;;;;;3.93;1.63;;;22.00;38.70;;;;;;5016627;28;20744;-91
2023/07/13 11:04:49;;;;;;;6.47;2.33;;;21.80;1.00;;;;;;5016577;28;20157;-91
2023/07/13 11:07:22;;;;;;;8.37;2.30;;;21.80;95.70;;;;;;5015278;28;20272;-91
2023/07/13 11:09:57;;;;;;;4.97;2.17;;;21.80;87.70;;;;;;5014537;28;20208;-91
2023/07/13 11:12:23;;;;;;;5.90;1.90;;;21.80;22.60;;;;;;5015198;28;20183;-91
2023/07/13 11:14:54;;;;;;;9.57;2.33;;;21.90;89.90;;;;;;5015308;28;20177;-91
2023/07/13 11:17:49;;;;;;;5.07;1.90;;;22.00;1.00;;;;;;5016225;28;20343;-91
2023/07/13 11:20:14;;;;;;;5.50;2.13;;;22.10;21.00;;;;;;5015261;28;20197;-91
2023/07/13 11:22:48;;;;;;;5.73;2.20;;;22.10;1.00;;;;;;5014905;28;20240;-91
2023/07/13 11:25:37;;;;;;;7.53;2.10;;;22.20;6.90;;;;;;5014433;28;20642;-91
2023/07/13 11:28:30;;;;;;;7.97;2.00;;;22.30;1.00;;;;;;5016544;28;20171;-91
2023/07/13 11:30:56;;;;;;;5.77;1.97;;;22.10;1.00;;;;;;5011859;28;20208;-91
2023/07/13 11:33:24;;;;;;;3.83;1.90;;;22.10;1.00;;;;;;5014247;28;20230;-91
2023/07/13 11:35:59;;;;;;;3.57;1.67;;;22.10;1.00;;;;;;5015053;28;20172;-91
2023/07/13 11:38:49;;;;;;;3.03;1.40;;;22.20;1.00;;;;;;5014390;28;20566;-91
2023/07/13 11:41:44;;;;;;;4.83;1.90;;;22.30;1.00;;;;;;5014049;28;20307;-90
2023/07/13 11:44:21;;;;;;;6.17;2.17;;;22.30;1.00;;;;;;5000826;28;20181;-91
2023/07/13 11:46:53;;;;;;;3.40;1.70;;;22.20;1.00;;;;;;5015524;28;20173;-91
2023/07/13 11:49:21;;;;;;;5.43;2.07;;;22.20;1.00;;;;;;5015225;28;20675;-91
2023/07/13 11:51:53;;;;;;;4.57;1.57;;;22.30;1.00;;;;;;5014841;28;20169;-90
2023/07/13 11:54:26;;;;;;;5.93;1.60;;;22.30;1.00;;;;;;5013965;28;20169;-91
2023/07/13 11:56:52;;;;;;;5.47;1.70;;;22.40;1.00;;;;;;5014225;28;20177;-91
2023/07/13 11:59:19;;;;;;;9.63;2.10;;;22.30;1.00;;;;;;5015623;28;20675;-91
2023/07/13 12:01:52;;;;;;;5.07;1.57;;;22.60;1.00;;;;;;5013718;28;20200;-92
2023/07/13 12:04:31;;;;;;;4.37;1.90;;;22.80;1.00;;;;;;5014537;28;20196;-90
2023/07/13 12:07:17;;;;;;;2.93;1.70;;;23.00;99.90;;;;;;5014938;28;20184;-91
2023/07/13 12:09:43;;;;;;;3.17;1.40;;;23.10;99.90;;;;;;5015640;28;20215;-92
2023/07/13 12:12:18;;;;;;;4.97;1.70;;;23.10;1.00;;;;;;5014113;28;20181;-91
2023/07/13 12:14:44;;;;;;;5.40;1.67;;;23.00;1.00;;;;;;5015534;28;20638;-91
2023/07/13 12:17:21;;;;;;;6.27;1.83;;;23.00;1.00;;;;;;5023529;28;20267;-91
2023/07/13 12:19:48;;;;;;;6.50;1.60;;;23.00;1.00;;;;;;5017493;28;20192;-92
2023/07/13 12:22:16;;;;;;;6.30;1.60;;;22.90;99.90;;;;;;5014070;28;20179;-91
2023/07/13 12:24:43;;;;;;;4.67;1.10;;;23.00;99.90;;;;;;5013921;28;20205;-92
2023/07/13 12:27:22;;;;;;;4.67;1.60;;;23.20;99.90;;;;;;5012622;28;20243;-92
2023/07/13 12:30:23;;;;;;;2.60;1.30;;;23.10;99.90;;;;;;5014933;28;20204;-91
2023/07/13 12:33:24;;;;;;;4.93;1.37;;;23.20;99.90;;;;;;5015156;28;20244;-91
2023/07/13 12:35:52;;;;;;;4.97;1.43;;;23.20;99.90;;;;;;4973006;28;20176;-91
2023/07/13 12:38:21;;;;;;;4.67;1.67;;;23.40;99.90;;;;;;5013745;28;20177;-91
2023/07/13 12:40:51;;;;;;;3.30;1.47;;;23.50;1.00;;;;;;5012876;28;20193;-92
2023/07/13 12:43:17;;;;;;;4.80;1.53;;;23.50;99.90;;;;;;5014425;28;20211;-92
2023/07/13 12:46:15;;;;;;;5.20;1.30;;;23.50;99.90;;;;;;5013741;28;20180;-91
2023/07/13 12:48:42;;;;;;;4.77;1.60;;;23.20;99.90;;;;;;5013363;28;20200;-91
2023/07/13 12:51:11;;;;;;;7.13;1.73;;;23.20;99.90;;;;;;5013014;28;20197;-91
2023/07/13 12:53:42;;;;;;;5.27;1.77;;;22.90;99.90;;;;;;5012880;28;20263;-91
2023/07/13 12:56:18;;;;;;;6.47;1.63;;;23.10;99.90;;;;;;5013566;28;20173;-92
2023/07/13 12:58:45;;;;;;;4.63;1.53;;;22.70;1.00;;;;;;5014944;28;20619;-92
2023/07/13 13:01:13;;;;;;;4.40;1.50;;;22.50;1.00;;;;;;5012891;28;20216;-92